Time;durP1;ratioP1;P1;durP2;ratioP2;P2;SDS_P1;SDS_P2;PMS_P1;PMS_P2;Temp;Humidity;BMP_temperature;BMP_pressure;BME280_temperature;BME280_humidity;BME280_pressure;Samples;Min_cycle;Max_cycle;Signal;HPM_P1;HPM_P2
2022/09/14 00:00:57;;;;;;;3.22;2.40;;;;;;;11.29;100.00;98653.88;1710199;84;21051;-70
2022/09/14 00:03:25;;;;;;;3.37;2.80;;;;;;;11.28;100.00;98651.36;1748469;82;21157;-70
2022/09/14 00:05:51;;;;;;;3.10;2.80;;;;;;;11.27;100.00;98647.92;1748821;82;20994;-70
2022/09/14 00:08:18;;;;;;;2.58;2.37;;;;;;;11.27;100.00;98650.53;1748748;81;20994;-70
2022/09/14 00:10:45;;;;;;;3.20;2.50;;;;;;;11.28;100.00;98650.06;1748605;82;20950;-70
2022/09/14 00:13:13;;;;;;;3.55;2.45;;;;;;;11.27;100.00;98648.39;1748839;82;20966;-69
2022/09/14 00:15:42;;;;;;;2.42;2.22;;;;;;;11.24;100.00;98639.45;1748869;82;21133;-70
2022/09/14 00:18:09;;;;;;;4.80;2.52;;;;;;;11.23;100.00;98633.86;1721883;82;21014;-69
2022/09/14 00:20:35;;;;;;;2.60;2.20;;;;;;;11.23;100.00;98632.56;1750859;81;21025;-70
2022/09/14 00:23:02;;;;;;;2.20;2.00;;;;;;;11.23;100.00;98636.47;1748417;81;20954;-70
2022/09/14 00:25:29;;;;;;;2.75;2.55;;;;;;;11.23;100.00;98633.86;1748829;82;21001;-69
2022/09/14 00:27:56;;;;;;;2.42;2.22;;;;;;;11.21;100.00;98634.41;1748732;82;21256;-69
2022/09/14 00:30:23;;;;;;;2.87;2.58;;;;;;;11.21;100.00;98637.02;1721875;82;20958;-69
2022/09/14 00:32:50;;;;;;;3.20;2.30;;;;;;;11.20;100.00;98636.17;1748804;82;21017;-69
2022/09/14 00:35:17;;;;;;;2.67;2.30;;;;;;;11.20;100.00;98627.06;1748778;82;21017;-69
2022/09/14 00:37:43;;;;;;;6.28;2.33;;;;;;;11.21;100.00;98630.50;1748543;82;20925;-69
2022/09/14 00:40:11;;;;;;;4.45;2.58;;;;;;;11.19;100.00;98637.09;1748451;81;21957;-69
2022/09/14 00:42:39;;;;;;;2.90;2.70;;;;;;;11.19;100.00;98629.30;1748212;82;21010;-69
2022/09/14 00:45:18;;;;;;;2.83;2.50;;;;;;;11.19;100.00;98634.50;1748773;82;21009;-69
2022/09/14 00:47:48;;;;;;;2.52;2.33;;;;;;;11.20;100.00;98630.97;1749202;81;21073;-69
2022/09/14 00:50:15;;;;;;;2.75;2.40;;;;;;;11.21;100.00;98627.44;1748865;82;21470;-69
2022/09/14 00:52:44;;;;;;;2.92;2.60;;;;;;;11.20;100.00;98629.67;1747528;82;21292;-69
2022/09/14 00:55:14;;;;;;;2.80;2.60;;;;;;;11.19;100.00;98621.48;1748659;82;21418;-69
2022/09/14 00:57:44;;;;;;;2.40;2.15;;;;;;;11.20;100.00;98621.86;1748836;81;20998;-69
2022/09/14 01:00:13;;;;;;;3.20;2.05;;;;;;;11.18;100.00;98627.64;1721492;82;21442;-69
2022/09/14 01:02:40;;;;;;;2.65;2.40;;;;;;;11.17;100.00;98629.87;1748486;82;20962;-69
2022/09/14 01:05:09;;;;;;;2.98;2.60;;;;;;;11.15;100.00;98630.88;1748773;82;21202;-69
2022/09/14 01:08:12;;;;;;;2.77;2.58;;;;;;;11.13;100.00;98628.36;1748847;82;21567;-69
2022/09/14 01:10:49;;;;;;;2.35;2.20;;;;;;;11.12;100.00;98635.79;1743917;82;21053;-69
2022/09/14 01:13:21;;;;;;;2.33;2.12;;;;;;;11.11;100.00;98630.67;1748813;81;21080;-69
2022/09/14 01:15:54;;;;;;;2.65;2.45;;;;;;;11.10;100.00;98630.30;1748713;82;21045;-69
2022/09/14 01:18:41;;;;;;;2.72;2.52;;;;;;;11.08;100.00;98626.94;1745577;82;21791;-69
2022/09/14 01:21:25;;;;;;;3.55;3.25;;;;;;;11.05;100.00;98627.95;1748798;81;21046;-69
2022/09/14 01:24:19;;;;;;;3.58;2.20;;;;;;;11.02;100.00;98625.05;1748706;81;20979;-69
2022/09/14 01:27:15;;;;;;;;;;;;;;;11.01;100.00;98620.77;1751520;82;21545;-69
2022/09/14 01:29:47;;;;;;;2.77;2.58;;;;;;;11.00;100.00;98626.90;1748742;82;20094;-69
2022/09/14 01:32:41;;;;;;;2.77;2.05;;;;;;;10.97;100.00;98621.05;1748412;82;21805;-69
2022/09/14 01:35:22;;;;;;;2.58;2.37;;;;;;;10.96;100.00;98620.22;1748769;81;20995;-69
2022/09/14 01:37:54;;;;;;;3.45;2.50;;;;;;;10.93;100.00;98615.18;1721784;82;21062;-69
2022/09/14 01:40:37;;;;;;;2.33;2.12;;;;;;;10.91;100.00;98613.13;1749048;82;21418;-69
2022/09/14 01:43:11;;;;;;;3.83;2.33;;;;;;;10.91;100.00;98617.48;1749011;81;21002;-69
2022/09/14 01:45:40;;;;;;;2.50;2.02;;;;;;;10.88;100.00;98613.75;1748538;81;21161;-70
2022/09/14 01:48:09;;;;;;;2.87;2.52;;;;;;;10.85;100.00;98613.46;1748093;82;21045;-69
2022/09/14 01:50:49;;;;;;;4.65;2.37;;;;;;;10.82;100.00;98609.72;1748756;81;21513;-69
2022/09/14 01:53:26;;;;;;;2.33;1.90;;;;;;;10.81;100.00;98615.01;1745770;82;21032;-70
2022/09/14 01:56:05;;;;;;;2.45;2.25;;;;;;;10.76;100.00;98607.48;1748701;82;21014;-70
2022/09/14 01:58:37;;;;;;;2.83;2.60;;;;;;;10.69;100.00;98609.58;1743264;82;21166;-70
2022/09/14 02:01:05;;;;;;;2.90;2.50;;;;;;;10.62;100.00;98618.63;1740922;81;21403;-69
2022/09/14 02:03:50;;;;;;;2.80;2.35;;;;;;;10.54;100.00;98616.94;1720140;82;21458;-70
2022/09/14 02:06:36;;;;;;;2.52;2.20;;;;;;;10.47;100.00;98605.64;1740397;82;21006;-69
2022/09/14 02:09:03;;;;;;;4.58;2.40;;;;;;;10.40;100.00;98607.73;1741176;82;20970;-69
2022/09/14 02:11:31;;;;;;;2.42;2.22;;;;;;;10.31;100.00;98609.55;1740667;81;21165;-69
2022/09/14 02:13:58;;;;;;;4.47;2.40;;;;;;;10.23;100.00;98610.41;1740845;81;21042;-70
2022/09/14 02:16:25;;;;;;;3.55;2.40;;;;;;;10.14;100.00;98608.28;1740834;82;20998;-70
2022/09/14 02:18:51;;;;;;;2.83;2.10;;;;;;;10.06;100.00;98613.03;1740302;81;20955;-70
2022/09/14 02:21:23;;;;;;;2.80;2.35;;;;;;;9.98;100.00;98620.79;1719893;82;21073;-70
2022/09/14 02:23:49;;;;;;;3.15;2.50;;;;;;;9.91;100.00;98610.79;1740582;82;21183;-70
2022/09/14 02:26:16;;;;;;;3.22;2.65;;;;;;;9.83;100.00;98605.98;1741059;82;21041;-70
2022/09/14 02:28:43;;;;;;;2.50;2.30;;;;;;;9.78;100.00;98609.76;1741140;82;21002;-70
2022/09/14 02:31:24;;;;;;;2.52;2.33;;;;;;;9.75;100.00;98599.53;1741427;82;21037;-70
2022/09/14 02:34:01;;;;;;;4.35;2.60;;;;;;;9.72;100.00;98600.52;1738810;82;20955;-70
2022/09/14 02:36:53;;;;;;;4.08;2.92;;;;;;;9.70;100.00;98593.27;1741037;82;21277;-70
2022/09/14 02:39:48;;;;;;;3.22;2.92;;;;;;;9.66;100.00;98593.88;1737548;82;21550;-70
2022/09/14 02:42:36;;;;;;;5.80;3.30;;;;;;;9.65;100.00;98593.50;1740629;81;20938;-70
2022/09/14 02:45:17;;;;;;;3.55;2.92;;;;;;;9.64;100.00;98594.88;1740935;81;20959;-70
2022/09/14 02:47:57;;;;;;;3.45;3.05;;;;;;;9.63;100.00;98597.09;1740980;82;20998;-70
2022/09/14 02:50:52;;;;;;;4.33;3.20;;;;;;;9.62;100.00;98594.11;1727905;82;21439;-70
2022/09/14 02:53:42;;;;;;;6.75;3.20;;;;;;;9.61;100.00;98591.97;1741069;81;20998;-70
2022/09/14 02:56:10;;;;;;;4.90;2.90;;;;;;;9.60;100.00;98586.39;1720244;82;21006;-70
2022/09/14 02:58:42;;;;;;;2.92;2.70;;;;;;;9.61;100.00;98585.94;1722448;82;21651;-70
2022/09/14 03:01:12;;;;;;;4.92;3.47;;;;;;;9.59;100.00;98576.92;1710924;83;21474;-70
2022/09/14 03:03:39;;;;;;;5.65;3.10;;;;;;;9.58;100.00;98590.86;1710721;83;21150;-70
2022/09/14 03:06:06;;;;;;;3.60;3.30;;;;;;;9.56;100.00;98582.77;1710424;83;21061;-71
2022/09/14 03:08:32;;;;;;;5.60;3.02;;;;;;;9.54;100.00;98583.30;1710544;84;20966;-70
2022/09/14 03:11:01;;;;;;;4.12;3.35;;;;;;;9.54;100.00;98580.70;1710781;82;21007;-70
2022/09/14 03:13:27;;;;;;;3.27;2.98;;;;;;;9.53;100.00;98576.42;1711141;83;21058;-70
2022/09/14 03:15:53;;;;;;;3.60;2.90;;;;;;;9.51;100.00;98582.99;1711211;83;21072;-70
2022/09/14 03:18:20;;;;;;;6.47;3.37;;;;;;;9.48;100.00;98575.36;1710957;83;20987;-70
2022/09/14 03:20:47;;;;;;;3.37;3.08;;;;;;;9.46;100.00;98576.34;1682563;83;21025;-70
2022/09/14 03:23:13;;;;;;;3.15;2.60;;;;;;;9.43;100.00;98578.64;1710659;83;21006;-70
2022/09/14 03:25:42;;;;;;;4.08;3.33;;;;;;;9.40;100.00;98569.70;1710663;83;21058;-70
2022/09/14 03:28:10;;;;;;;4.35;3.52;;;;;;;9.37;100.00;98567.75;1710760;83;21244;-70
2022/09/14 03:30:37;;;;;;;4.97;3.72;;;;;;;9.32;100.00;98570.11;1711912;82;20986;-70
2022/09/14 03:33:04;;;;;;;3.00;2.70;;;;;;;9.30;100.00;98571.94;1710824;83;21442;-70
2022/09/14 03:35:32;;;;;;;5.65;2.87;;;;;;;9.30;100.00;98575.00;1711145;83;21002;-70
2022/09/14 03:37:59;;;;;;;6.83;3.58;;;;;;;9.29;100.00;98574.16;1711519;83;20994;-70
2022/09/14 03:40:26;;;;;;;5.58;3.67;;;;;;;9.30;100.00;98573.24;1710518;83;21051;-70
2022/09/14 03:42:53;;;;;;;6.20;4.00;;;;;;;9.33;100.00;98571.80;1710656;83;20940;-70
2022/09/14 03:45:20;;;;;;;7.35;3.35;;;;;;;9.36;100.00;98577.75;1710644;83;20986;-70
2022/09/14 03:47:47;;;;;;;7.22;3.27;;;;;;;9.38;100.00;98566.84;1710861;83;21486;-70
2022/09/14 03:50:14;;;;;;;7.08;3.55;;;;;;;9.39;100.00;98568.52;1710926;83;21418;-70
2022/09/14 03:52:41;;;;;;;4.08;3.67;;;;;;;9.40;100.00;98576.19;1710515;83;22513;-70
2022/09/14 03:55:08;;;;;;;5.25;3.90;;;;;;;9.45;100.00;98578.56;1710843;83;21434;-70
2022/09/14 03:57:36;;;;;;;6.80;3.77;;;;;;;9.47;100.00;98573.67;1710116;82;21472;-70
2022/09/14 04:00:05;;;;;;;3.77;3.33;;;;;;;9.54;100.00;98579.41;1700422;84;21459;-70
2022/09/14 04:02:34;;;;;;;6.33;3.83;;;;;;;9.62;100.00;98561.20;1700230;84;20944;-70
2022/09/14 04:05:00;;;;;;;5.95;4.42;;;;;;;9.79;100.00;98561.61;1700679;84;21125;-70
2022/09/14 04:07:28;;;;;;;4.25;3.85;;;;;;;10.10;100.00;98564.73;1700648;84;20951;-70
2022/09/14 04:09:55;;;;;;;3.72;3.37;;;;;;;10.44;100.00;98570.71;1700809;84;20967;-70
2022/09/14 04:12:23;;;;;;;6.35;2.77;;;;;;;10.60;100.00;98571.07;1700645;84;20971;-70
2022/09/14 04:14:50;;;;;;;5.28;3.20;;;;;;;10.66;100.00;98563.40;1700742;84;21007;-70
2022/09/14 04:17:17;;;;;;;3.80;3.40;;;;;;;10.65;100.00;98566.46;1700819;84;21103;-70
2022/09/14 04:19:43;;;;;;;7.15;3.50;;;;;;;10.61;100.00;98566.25;1700547;84;20991;-70
2022/09/14 04:22:10;;;;;;;5.47;3.08;;;;;;;10.59;100.00;98573.78;1680564;84;21010;-70
2022/09/14 04:24:37;;;;;;;6.37;3.30;;;;;;;10.58;100.00;98573.41;1700608;84;21026;-70
2022/09/14 04:27:04;;;;;;;3.17;2.87;;;;;;;10.58;100.00;98575.55;1700695;84;20947;-70
2022/09/14 04:29:31;;;;;;;4.17;3.17;;;;;;;10.61;100.00;98582.31;1700589;84;21233;-70
2022/09/14 04:31:58;;;;;;;4.35;3.00;;;;;;;10.61;100.00;98581.02;1700637;84;21006;-70
2022/09/14 04:34:25;;;;;;;5.42;2.83;;;;;;;10.61;100.00;98581.02;1700699;84;21042;-70
2022/09/14 04:36:52;;;;;;;4.70;3.15;;;;;;;10.62;100.00;98581.39;1700652;84;21432;-70
2022/09/14 04:39:20;;;;;;;5.00;3.10;;;;;;;10.63;100.00;98580.47;1700753;84;21475;-70
2022/09/14 04:41:46;;;;;;;7.15;3.75;;;;;;;10.63;100.00;98577.87;1700670;84;21184;-70
2022/09/14 04:44:13;;;;;;;5.50;3.22;;;;;;;10.66;100.00;98581.14;1700627;84;20951;-70
2022/09/14 04:46:41;;;;;;;7.45;5.08;;;;;;;10.72;100.00;98577.83;1700524;84;21050;-70
2022/09/14 04:49:08;;;;;;;7.65;3.45;;;;;;;10.75;100.00;98577.66;1700591;84;21003;-70
2022/09/14 04:51:36;;;;;;;7.90;4.33;;;;;;;10.78;100.00;98578.33;1700675;83;20986;-70
2022/09/14 04:54:04;;;;;;;6.58;3.90;;;;;;;10.85;100.00;98578.80;1700625;84;21149;-70
2022/09/14 04:56:33;;;;;;;7.80;4.33;;;;;;;10.89;100.00;98581.61;1700655;84;20959;-70
2022/09/14 04:59:00;;;;;;;9.60;4.58;;;;;;;10.93;100.00;98581.82;1705476;83;21516;-70
2022/09/14 05:01:31;;;;;;;9.20;4.85;;;;;;;10.98;100.00;98584.55;1748617;82;21022;-70
2022/09/14 05:03:58;;;;;;;13.90;6.55;;;;;;;11.02;100.00;98589.92;1748101;82;20982;-70
2022/09/14 05:06:28;;;;;;;8.55;4.28;;;;;;;11.03;100.00;98596.80;1748472;82;21975;-70
2022/09/14 05:08:56;;;;;;;8.28;4.28;;;;;;;11.03;100.00;98592.06;1748944;82;21040;-70
2022/09/14 05:11:26;;;;;;;7.40;4.15;;;;;;;11.09;100.00;98592.19;1739559;81;20985;-70
2022/09/14 05:13:55;;;;;;;4.97;3.83;;;;;;;11.17;100.00;98583.02;1736085;81;21550;-70
2022/09/14 05:16:27;;;;;;;17.80;4.87;;;;;;;11.29;100.00;98594.48;1737448;81;20976;-69
2022/09/14 05:18:56;;;;;;;5.70;4.47;;;;;;;11.36;100.00;98595.80;1716271;82;21436;-70
2022/09/14 05:21:23;;;;;;;11.03;4.70;;;;;;;11.46;100.00;98586.51;1720457;82;20917;-71
2022/09/14 05:23:58;;;;;;;22.67;5.92;;;;;;;11.55;100.00;98585.14;1729954;82;21442;-71
2022/09/14 05:26:26;;;;;;;7.33;4.08;;;;;;;11.65;100.00;98583.65;1730826;82;20973;-72
2022/09/14 05:29:01;;;;;;;5.93;4.00;;;;;;;11.78;100.00;98579.43;1866403;75;27699;-72
2022/09/14 05:31:29;;;;;;;9.13;4.35;;;;;;;11.82;100.00;98582.66;1852060;77;20960;-72
2022/09/14 05:33:55;;;;;;;15.03;5.55;;;;;;;11.88;100.00;98575.78;1796056;79;21127;-71
2022/09/14 05:36:22;;;;;;;10.48;4.72;;;;;;;11.94;100.00;98578.86;1818706;79;20868;-71
2022/09/14 05:38:48;;;;;;;11.63;4.40;;;;;;;12.00;100.00;98573.72;1811504;79;21429;-71
2022/09/14 05:41:15;;;;;;;12.37;4.75;;;;;;;12.08;100.00;98572.80;1818839;79;20971;-71
2022/09/14 05:43:43;;;;;;;11.08;4.87;;;;;;;12.12;100.00;98570.38;1818415;78;21603;-80
2022/09/14 05:46:18;;;;;;;7.67;4.30;;;;;;;12.14;100.00;98575.50;1814651;78;21288;-75
2022/09/14 05:48:44;;;;;;;13.20;4.78;;;;;;;12.17;100.00;98575.31;1799367;77;21492;-70
2022/09/14 05:51:16;;;;;;;6.37;4.05;;;;;;;12.27;100.00;98576.40;1829663;77;21041;-71
2022/09/14 05:53:52;;;;;;;4.10;3.70;;;;;;;12.46;100.00;98570.86;1804162;77;21008;-71
2022/09/14 05:56:20;;;;;;;5.30;3.60;;;;;;;12.67;100.00;98563.81;1827416;78;21493;-70
2022/09/14 05:58:48;;;;;;;9.13;3.55;;;;;;;12.86;100.00;98554.80;1833633;78;21185;-70
2022/09/14 06:01:25;;;;;;;7.25;4.35;;;;;;;13.00;100.00;98554.25;1796242;79;21002;-70
2022/09/14 06:04:00;;;;;;;13.13;5.12;;;;;;;13.14;100.00;98554.66;1801147;79;21499;-69
2022/09/14 06:06:33;;;;;;;7.55;4.10;;;;;;;13.27;100.00;98552.93;1807569;78;21082;-70
2022/09/14 06:09:01;;;;;;;5.50;3.45;;;;;;;13.39;100.00;98559.09;1803799;78;21021;-72
2022/09/14 06:11:30;;;;;;;7.58;3.83;;;;;;;13.51;100.00;98560.89;1797139;77;21490;-72
2022/09/14 06:13:59;;;;;;;17.02;4.55;;;;;;;13.61;100.00;98560.63;1806085;77;20986;-70
2022/09/14 06:16:26;;;;;;;7.17;3.35;;;;;;;13.68;100.00;98555.83;1796248;78;20989;-70
2022/09/14 06:18:55;;;;;;;4.30;3.35;;;;;;;13.77;98.89;98554.73;1807188;77;21001;-70
2022/09/14 06:21:23;;;;;;;6.03;3.85;;;;;;;13.83;97.15;98547.39;1803116;77;21980;-71
2022/09/14 06:23:50;;;;;;;8.53;3.10;;;;;;;13.90;96.62;98546.03;1704283;82;21116;-70
2022/09/14 06:26:17;;;;;;;16.32;4.60;;;;;;;14.00;95.76;98548.36;1736920;81;21040;-71
2022/09/14 06:28:43;;;;;;;12.65;4.50;;;;;;;14.07;95.15;98550.45;1731660;81;21047;-71
2022/09/14 06:31:13;;;;;;;3.90;3.37;;;;;;;14.17;94.54;98553.73;1775301;80;21992;-70
2022/09/14 06:33:46;;;;;;;10.70;3.60;;;;;;;14.33;93.06;98551.23;1764685;81;21039;-71
2022/09/14 06:36:19;;;;;;;17.40;3.85;;;;;;;14.33;93.06;98551.23;1740367;81;21159;-68
2022/09/14 06:38:48;;;;;;;6.58;3.17;;;;;;;14.49;92.92;98549.69;1755588;80;20998;-69
2022/09/14 06:41:21;;;;;;;10.43;4.12;;;;;;;14.68;92.56;98550.50;1759802;79;21080;-69
2022/09/14 06:43:48;;;;;;;;;;;;;;;14.82;91.02;98559.48;1743336;80;21668;-70
2022/09/14 06:46:21;;;;;;;8.15;4.87;;;;;;;14.96;90.42;98545.39;1769556;79;21003;-70
2022/09/14 06:48:55;;;;;;;4.95;3.55;;;;;;;15.09;89.98;98549.59;1764666;79;21154;-70
2022/09/14 06:51:30;;;;;;;6.65;3.50;;;;;;;15.27;88.58;98546.07;1736931;81;21068;-70
2022/09/14 06:54:00;;;;;;;7.47;3.65;;;;;;;15.41;87.52;98552.41;1751445;81;21025;-71
2022/09/14 06:56:31;;;;;;;5.45;3.35;;;;;;;15.48;85.89;98554.94;1741235;82;21567;-71
2022/09/14 06:58:58;;;;;;;11.12;3.75;;;;;;;15.52;86.00;98554.23;1735380;81;22275;-72
2022/09/14 07:01:25;;;;;;;10.25;3.92;;;;;;;15.60;85.45;98560.21;1743930;81;21583;-70
2022/09/14 07:03:52;;;;;;;7.70;4.15;;;;;;;15.68;84.90;98550.83;1750215;80;21637;-72
2022/09/14 07:06:22;;;;;;;4.55;3.60;;;;;;;15.82;85.21;98549.75;1735020;80;21096;-70
2022/09/14 07:08:50;;;;;;;9.38;3.85;;;;;;;15.98;83.55;98532.38;1749860;79;21676;-70
2022/09/14 07:11:21;;;;;;;10.65;3.72;;;;;;;16.17;82.63;98532.59;1735334;80;21333;-71
2022/09/14 07:13:48;;;;;;;6.12;3.62;;;;;;;16.37;80.95;98531.00;1773206;79;21644;-71
2022/09/14 07:16:14;;;;;;;8.18;3.83;;;;;;;16.53;79.58;98530.13;1751615;80;20931;-70
2022/09/14 07:18:42;;;;;;;6.47;3.22;;;;;;;16.61;79.04;98521.13;1767638;79;21017;-71
2022/09/14 07:21:15;;;;;;;6.37;3.05;;;;;;;16.67;78.65;98522.47;1770866;80;21082;-70
2022/09/14 07:23:43;;;;;;;4.00;3.12;;;;;;;16.72;77.99;98515.89;1753101;80;21044;-70
2022/09/14 07:26:19;;;;;;;7.58;3.30;;;;;;;16.72;77.53;98520.31;1741961;81;21151;-70
2022/09/14 07:28:49;;;;;;;5.05;3.30;;;;;;;16.70;77.28;98517.80;1762804;79;20997;-69
2022/09/14 07:31:30;;;;;;;3.50;3.17;;;;;;;16.67;76.47;98523.78;1739447;81;21525;-69
2022/09/14 07:34:01;;;;;;;10.55;3.83;;;;;;;16.63;76.67;98519.70;1735874;82;21012;-70
2022/09/14 07:36:30;;;;;;;9.63;3.62;;;;;;;16.65;75.69;98521.28;1749304;80;21039;-71
2022/09/14 07:38:56;;;;;;;7.17;3.00;;;;;;;16.71;75.38;98519.95;1763827;79;21133;-71
2022/09/14 07:41:26;;;;;;;12.73;3.80;;;;;;;16.86;75.42;98518.69;1747812;80;21536;-71
2022/09/14 07:43:56;;;;;;;4.97;3.40;;;;;;;16.99;75.13;98534.27;1751501;81;21029;-70
2022/09/14 07:46:23;;;;;;;6.72;3.80;;;;;;;17.14;75.27;98533.02;1757691;80;21035;-70
2022/09/14 07:48:56;;;;;;;3.42;2.60;;;;;;;17.25;75.47;98532.11;1761952;79;21030;-71
2022/09/14 07:51:23;;;;;;;11.03;3.45;;;;;;;17.35;73.90;98527.77;1745232;81;21129;-70
2022/09/14 07:53:49;;;;;;;5.50;3.60;;;;;;;17.38;73.70;98526.20;1723067;83;21084;-71
2022/09/14 07:56:17;;;;;;;6.47;3.22;;;;;;;17.44;73.83;98517.29;1729808;80;21319;-71
2022/09/14 07:58:45;;;;;;;6.83;3.30;;;;;;;17.51;72.67;98515.82;1741247;80;20982;-71
2022/09/14 08:01:16;;;;;;;11.70;4.35;;;;;;;17.55;73.32;98515.09;1754758;80;21037;-70
2022/09/14 08:03:43;;;;;;;7.47;2.95;;;;;;;17.68;72.77;98513.58;1735589;81;21279;-71
2022/09/14 08:06:16;;;;;;;7.30;3.55;;;;;;;17.78;72.79;98508.73;1741576;80;21558;-72
2022/09/14 08:08:44;;;;;;;6.65;4.10;;;;;;;17.90;71.98;98507.66;1748973;80;21037;-72
2022/09/14 08:11:18;;;;;;;5.62;3.20;;;;;;;18.00;72.04;98507.67;1792906;79;21508;-71
2022/09/14 08:13:52;;;;;;;4.65;3.17;;;;;;;18.12;71.27;98505.79;1743406;81;21030;-70
2022/09/14 08:16:19;;;;;;;4.70;3.30;;;;;;;18.18;70.45;98513.16;1751892;80;21126;-73
2022/09/14 08:18:46;;;;;;;3.98;3.40;;;;;;;18.22;70.12;98506.15;1736025;80;21075;-71
2022/09/14 08:21:15;;;;;;;4.03;3.17;;;;;;;18.32;69.99;98503.55;1743522;81;21056;-71
2022/09/14 08:23:42;;;;;;;4.45;3.08;;;;;;;18.42;69.13;98507.02;1742479;81;21033;-71
2022/09/14 08:26:17;;;;;;;4.53;3.67;;;;;;;18.50;69.34;98503.72;1748789;80;21067;-71
2022/09/14 08:28:44;;;;;;;3.87;3.22;;;;;;;18.53;68.18;98504.77;1741251;81;21144;-71
2022/09/14 08:31:17;;;;;;;7.35;3.40;;;;;;;18.55;67.37;98504.98;1721534;80;21037;-72
2022/09/14 08:33:45;;;;;;;;;;;;;;;18.54;67.03;98501.16;1779506;80;21042;-70
2022/09/14 08:36:15;;;;;;;5.00;2.85;;;;;;;18.49;67.66;98503.36;1767428;80;20200;-70
2022/09/14 08:38:42;;;;;;;4.47;2.87;;;;;;;18.46;68.57;98503.16;1731007;82;21019;-71
2022/09/14 08:41:22;;;;;;;7.22;3.67;;;;;;;18.52;68.67;98499.15;1749968;80;21093;-69
2022/09/14 08:43:49;;;;;;;10.80;3.02;;;;;;;18.52;68.24;98492.08;1746995;81;21513;-70
2022/09/14 08:46:29;;;;;;;4.75;3.45;;;;;;;18.52;67.89;98494.72;1733304;81;22153;-72
2022/09/14 08:48:56;;;;;;;13.25;3.40;;;;;;;18.47;67.18;98489.50;1748048;80;20983;-71
2022/09/14 08:51:22;;;;;;;7.12;3.60;;;;;;;18.39;67.41;98491.97;1746852;81;21119;-70
2022/09/14 08:53:49;;;;;;;8.80;4.15;;;;;;;18.29;67.68;98483.24;1749117;80;21271;-70
2022/09/14 08:56:20;;;;;;;3.55;3.22;;;;;;;18.23;68.29;98484.61;1757959;80;21023;-71
2022/09/14 08:58:55;;;;;;;8.53;3.50;;;;;;;18.27;68.66;98490.44;1747206;80;21036;-70
2022/09/14 09:01:42;;;;;;;4.15;3.17;;;;;;;18.29;68.96;98489.83;1740771;80;21097;-70
2022/09/14 09:04:35;;;;;;;5.65;3.47;;;;;;;18.28;69.09;98490.30;1750713;80;21529;-69
2022/09/14 09:07:32;;;;;;;13.32;3.72;;;;;;;18.23;69.37;98488.56;1734428;80;21248;-69
2022/09/14 09:09:58;;;;;;;6.53;3.70;;;;;;;18.12;69.34;98491.31;1727097;83;21565;-70
2022/09/14 09:12:38;;;;;;;4.85;2.95;;;;;;;17.94;69.88;98496.39;1727294;83;21012;-70
2022/09/14 09:15:16;;;;;;;4.40;3.00;;;;;;;17.80;70.80;98500.19;1723437;83;21148;-70
2022/09/14 09:17:46;;;;;;;5.45;3.15;;;;;;;17.61;72.63;98507.13;1727752;83;21048;-70
2022/09/14 09:20:27;;;;;;;6.15;3.02;;;;;;;17.43;73.75;98506.91;1753757;79;21225;-70
2022/09/14 09:23:17;;;;;;;6.50;3.25;;;;;;;17.23;74.28;98515.16;1778726;80;21003;-70
2022/09/14 09:26:00;;;;;;;3.20;2.45;;;;;;;16.98;75.41;98513.76;1777112;79;21093;-70
2022/09/14 09:28:27;;;;;;;4.47;2.92;;;;;;;16.76;76.84;98515.16;1778850;80;21023;-70
2022/09/14 09:30:56;;;;;;;3.52;3.22;;;;;;;16.59;78.15;98511.23;1777563;80;21070;-70
2022/09/14 09:33:26;;;;;;;3.85;3.22;;;;;;;16.47;78.97;98512.23;1777630;80;21341;-70
2022/09/14 09:36:13;;;;;;;3.72;3.17;;;;;;;16.42;79.98;98502.10;1777482;80;21539;-70
2022/09/14 09:38:40;;;;;;;4.62;3.25;;;;;;;16.43;80.67;98506.39;1777731;80;21507;-71
2022/09/14 09:41:27;;;;;;;5.65;3.90;;;;;;;16.48;81.43;98506.03;1788708;79;21003;-71
2022/09/14 09:44:09;;;;;;;5.17;3.12;;;;;;;16.57;82.47;98500.53;1779710;80;21041;-71
2022/09/14 09:46:54;;;;;;;4.00;2.95;;;;;;;16.63;82.65;98489.50;1748437;80;21165;-71
2022/09/14 09:49:31;;;;;;;5.80;2.72;;;;;;;16.65;82.84;98492.87;1745767;80;21000;-71
2022/09/14 09:52:14;;;;;;;4.28;3.02;;;;;;;16.62;82.48;98494.41;1736363;82;21116;-72
2022/09/14 09:54:50;;;;;;;4.05;2.67;;;;;;;16.58;82.07;98489.91;1737001;82;20987;-71
2022/09/14 09:57:30;;;;;;;3.47;2.80;;;;;;;16.62;82.57;98489.98;1755258;81;21099;-71
2022/09/14 10:00:26;;;;;;;2.85;2.50;;;;;;;16.68;81.86;98482.96;1760575;80;21175;-71
2022/09/14 10:02:53;;;;;;;8.08;2.75;;;;;;;16.76;81.51;98483.66;1776673;80;21098;-71
2022/09/14 10:05:30;;;;;;;4.40;2.77;;;;;;;16.84;81.26;98496.97;1773663;80;21043;-70
2022/09/14 10:08:02;;;;;;;2.40;2.20;;;;;;;16.98;81.67;98494.53;1770819;80;20995;-71
2022/09/14 10:10:41;;;;;;;3.35;2.40;;;;;;;17.18;81.24;98487.97;1765712;81;21508;-72
2022/09/14 10:13:32;;;;;;;5.15;2.70;;;;;;;17.40;80.41;98485.65;1777438;80;21208;-71
2022/09/14 10:16:18;;;;;;;7.33;2.45;;;;;;;17.62;79.18;98485.13;1777165;80;21015;-71
2022/09/14 10:18:49;;;;;;;3.75;2.33;;;;;;;17.83;77.34;98476.74;1727907;80;21043;-71
2022/09/14 10:21:20;;;;;;;8.63;2.65;;;;;;;17.94;74.20;98472.71;1732572;81;21044;-72
2022/09/14 10:23:47;;;;;;;2.37;2.08;;;;;;;18.08;73.76;98468.37;1764145;81;21643;-71
2022/09/14 10:26:21;;;;;;;5.00;3.00;;;;;;;18.33;72.14;98462.27;1707977;81;22238;-72
2022/09/14 10:28:49;;;;;;;7.92;3.20;;;;;;;18.49;70.16;98466.50;1718685;82;21075;-71
2022/09/14 10:31:21;;;;;;;7.45;2.55;;;;;;;18.59;69.71;98451.55;1759590;80;21065;-71
2022/09/14 10:33:57;;;;;;;4.40;2.60;;;;;;;18.66;70.37;98445.26;1751365;81;21034;-70
2022/09/14 10:36:30;;;;;;;5.97;2.80;;;;;;;18.79;69.97;98445.31;1736308;82;21052;-71
2022/09/14 10:39:15;;;;;;;12.23;2.90;;;;;;;18.85;68.84;98446.56;1756138;80;26343;-71
2022/09/14 10:42:18;;;;;;;5.45;2.58;;;;;;;18.85;69.39;98441.29;1760919;81;21024;-70
2022/09/14 10:45:13;;;;;;;8.25;2.62;;;;;;;18.91;69.59;98446.01;1750202;80;21031;-70
2022/09/14 10:48:18;;;;;;;4.80;2.60;;;;;;;19.04;69.53;98443.06;1766120;80;21039;-71
2022/09/14 10:51:08;;;;;;;3.67;2.22;;;;;;;19.19;68.32;98445.59;1766415;79;21077;-71
2022/09/14 10:53:50;;;;;;;5.50;2.33;;;;;;;19.24;65.43;98435.45;1694876;82;21876;-71
2022/09/14 10:56:37;;;;;;;2.87;2.27;;;;;;;19.18;65.36;98438.16;1770931;80;21535;-72
2022/09/14 10:59:38;;;;;;;5.17;2.02;;;;;;;19.16;65.16;98441.46;1728535;80;21093;-70
2022/09/14 11:02:36;;;;;;;6.25;2.15;;;;;;;19.18;66.27;98438.69;1718342;83;21090;-70
2022/09/14 11:05:29;;;;;;;6.40;2.47;;;;;;;19.24;65.54;98440.24;1756014;80;21526;-71
2022/09/14 11:08:19;;;;;;;4.37;2.37;;;;;;;19.28;65.80;98432.40;1766520;79;21144;-71
2022/09/14 11:10:59;;;;;;;6.60;2.30;;;;;;;19.32;65.15;98425.52;1765088;80;21503;-72
2022/09/14 11:13:48;;;;;;;3.77;2.27;;;;;;;19.31;64.95;98421.22;1742951;80;21054;-71
2022/09/14 11:16:49;;;;;;;2.50;2.10;;;;;;;19.34;65.51;98424.89;1752327;80;20980;-71
2022/09/14 11:19:39;;;;;;;3.50;2.40;;;;;;;19.41;65.47;98430.75;1779543;80;21054;-72
2022/09/14 11:22:32;;;;;;;6.05;2.35;;;;;;;19.48;65.35;98425.25;1779939;79;21249;-72
2022/09/14 11:25:29;;;;;;;5.67;2.85;;;;;;;19.50;65.12;98425.97;1761417;80;21076;-71
2022/09/14 11:28:19;;;;;;;5.95;2.42;;;;;;;19.49;65.44;98425.59;1723192;82;21031;-69
2022/09/14 11:31:11;;;;;;;8.13;2.67;;;;;;;19.54;65.76;98421.24;1777314;80;21059;-70
2022/09/14 11:34:07;;;;;;;5.97;2.22;;;;;;;19.64;65.16;98416.73;1762722;80;21653;-70
2022/09/14 11:36:43;;;;;;;5.85;2.70;;;;;;;19.68;64.41;98411.52;1749411;79;21426;-71
2022/09/14 11:39:35;;;;;;;4.60;2.90;;;;;;;19.69;65.14;98414.98;1772724;79;21604;-70
2022/09/14 11:42:13;;;;;;;2.87;2.40;;;;;;;19.76;65.86;98416.91;1779274;80;21540;-70
2022/09/14 11:44:41;;;;;;;4.87;2.30;;;;;;;19.88;64.96;98418.36;1764879;81;21075;-70
2022/09/14 11:47:16;;;;;;;2.70;2.40;;;;;;;19.95;64.74;98412.84;1770028;80;21049;-70
2022/09/14 11:50:17;;;;;;;2.25;2.05;;;;;;;19.99;64.63;98413.83;1777388;80;21764;-70
2022/09/14 11:52:44;;;;;;;3.90;2.60;;;;;;;19.99;64.49;98401.95;1777410;80;21027;-71
2022/09/14 11:55:16;;;;;;;5.17;2.50;;;;;;;19.97;64.51;98403.45;1752013;80;20967;-70
2022/09/14 11:57:44;;;;;;;4.40;2.30;;;;;;;19.93;65.18;98400.28;1752794;81;20958;-70